sensor_id;sensor_type;location;lat;lon;timestamp;pressure;altitude;pressure_sealevel;temperature;humidity
70254;BME280;57649;42.968;1.608;2023-04-01T00:01:35;97486.13;;;10.59;67.24
70254;BME280;57649;42.968;1.608;2023-04-01T00:04:01;97496.97;;;10.49;67.79
70254;BME280;57649;42.968;1.608;2023-04-01T00:06:27;97484.94;;;10.37;67.82
70254;BME280;57649;42.968;1.608;2023-04-01T00:08:53;97496.47;;;10.37;68.84
70254;BME280;57649;42.968;1.608;2023-04-01T00:11:19;97490.44;;;10.44;66.02
70254;BME280;57649;42.968;1.608;2023-04-01T00:13:44;97496.47;;;10.46;66.41
70254;BME280;57649;42.968;1.608;2023-04-01T00:16:11;97501.16;;;10.44;67.70
70254;BME280;57649;42.968;1.608;2023-04-01T00:18:38;97496.97;;;10.49;67.86
70254;BME280;57649;42.968;1.608;2023-04-01T00:21:03;97509.34;;;10.42;68.50
70254;BME280;57649;42.968;1.608;2023-04-01T00:23:29;97498.97;;;10.39;68.08
70254;BME280;57649;42.968;1.608;2023-04-01T00:25:55;97495.94;;;10.42;68.35
70254;BME280;57649;42.968;1.608;2023-04-01T00:28:20;97496.31;;;10.47;68.90
70254;BME280;57649;42.968;1.608;2023-04-01T00:30:46;97490.78;;;10.40;69.24
70254;BME280;57649;42.968;1.608;2023-04-01T00:33:12;97492.63;;;10.56;68.18
70254;BME280;57649;42.968;1.608;2023-04-01T00:35:38;97495.81;;;10.52;67.87
70254;BME280;57649;42.968;1.608;2023-04-01T00:38:03;97495.00;;;10.51;68.18
70254;BME280;57649;42.968;1.608;2023-04-01T00:40:39;97482.28;;;10.62;66.30
70254;BME280;57649;42.968;1.608;2023-04-01T00:43:15;97479.44;;;10.63;67.79
70254;BME280;57649;42.968;1.608;2023-04-01T00:45:43;97472.38;;;10.62;66.90
70254;BME280;57649;42.968;1.608;2023-04-01T00:48:28;97482.59;;;10.58;67.86
70254;BME280;57649;42.968;1.608;2023-04-01T00:51:05;97479.09;;;10.66;67.02
70254;BME280;57649;42.968;1.608;2023-04-01T00:53:32;97477.25;;;10.58;67.38
70254;BME280;57649;42.968;1.608;2023-04-01T00:56:10;97456.84;;;10.57;65.36
70254;BME280;57649;42.968;1.608;2023-04-01T00:58:41;97465.19;;;10.71;64.41
70254;BME280;57649;42.968;1.608;2023-04-01T01:01:09;97463.88;;;10.83;64.37
70254;BME280;57649;42.968;1.608;2023-04-01T01:03:36;97466.72;;;10.82;63.98
70254;BME280;57649;42.968;1.608;2023-04-01T01:20:08;97467.88;;;10.87;63.00
70254;BME280;57649;42.968;1.608;2023-04-01T01:28:38;97466.03;;;10.79;64.88
70254;BME280;57649;42.968;1.608;2023-04-01T01:36:29;97461.88;;;10.77;65.21
70254;BME280;57649;42.968;1.608;2023-04-01T01:38:56;97473.25;;;10.79;63.81
70254;BME280;57649;42.968;1.608;2023-04-01T01:41:23;97476.09;;;10.77;63.52
70254;BME280;57649;42.968;1.608;2023-04-01T01:43:53;97469.91;;;10.77;64.71
70254;BME280;57649;42.968;1.608;2023-04-01T01:46:22;97475.09;;;10.87;62.76
70254;BME280;57649;42.968;1.608;2023-04-01T01:48:49;97482.44;;;10.85;63.42
70254;BME280;57649;42.968;1.608;2023-04-01T01:51:16;97451.81;;;10.87;62.77
70254;BME280;57649;42.968;1.608;2023-04-01T01:53:42;97464.84;;;10.82;63.26
70254;BME280;57649;42.968;1.608;2023-04-01T01:56:07;97456.16;;;10.80;62.48
70254;BME280;57649;42.968;1.608;2023-04-01T01:58:40;97462.19;;;10.82;62.22
70254;BME280;57649;42.968;1.608;2023-04-01T02:01:13;97465.53;;;10.84;62.96
70254;BME280;57649;42.968;1.608;2023-04-01T02:03:41;97467.41;;;10.75;63.17
70254;BME280;57649;42.968;1.608;2023-04-01T02:06:09;97476.75;;;10.79;63.16
70254;BME280;57649;42.968;1.608;2023-04-01T02:08:39;97461.19;;;10.75;62.84
70254;BME280;57649;42.968;1.608;2023-04-01T02:11:11;97466.22;;;10.70;63.18
70254;BME280;57649;42.968;1.608;2023-04-01T02:13:40;97461.19;;;10.75;63.09
70254;BME280;57649;42.968;1.608;2023-04-01T02:16:29;97462.53;;;10.71;63.28
70254;BME280;57649;42.968;1.608;2023-04-01T02:18:57;97454.50;;;10.71;62.46
70254;BME280;57649;42.968;1.608;2023-04-01T02:21:28;97463.53;;;10.70;63.10
70254;BME280;57649;42.968;1.608;2023-04-01T02:23:56;97457.69;;;10.66;63.08
70254;BME280;57649;42.968;1.608;2023-04-01T02:26:24;97462.19;;;10.66;62.59
70254;BME280;57649;42.968;1.608;2023-04-01T02:28:52;97456.00;;;10.65;62.88
70254;BME280;57649;42.968;1.608;2023-04-01T02:31:19;97456.84;;;10.74;62.83
70254;BME280;57649;42.968;1.608;2023-04-01T02:33:45;97463.53;;;10.70;62.84
70254;BME280;57649;42.968;1.608;2023-04-01T02:36:16;97469.72;;;10.62;63.71
70254;BME280;57649;42.968;1.608;2023-04-01T02:38:43;97463.34;;;10.55;64.12
70254;BME280;57649;42.968;1.608;2023-04-01T02:41:10;97460.88;;;10.53;65.04
70254;BME280;57649;42.968;1.608;2023-04-01T02:43:35;97456.00;;;10.57;63.81
70254;BME280;57649;42.968;1.608;2023-04-01T02:46:00;97449.50;;;10.51;64.36
70254;BME280;57649;42.968;1.608;2023-04-01T02:48:27;97444.44;;;10.56;63.49
70254;BME280;57649;42.968;1.608;2023-04-01T02:50:52;97450.47;;;10.58;63.71
70254;BME280;57649;42.968;1.608;2023-04-01T02:53:18;97441.28;;;10.53;64.12
70254;BME280;57649;42.968;1.608;2023-04-01T02:55:43;97445.31;;;10.57;64.26
70254;BME280;57649;42.968;1.608;2023-04-01T02:58:10;97452.47;;;10.56;65.09
70254;BME280;57649;42.968;1.608;2023-04-01T03:00:35;97440.09;;;10.39;65.74
70254;BME280;57649;42.968;1.608;2023-04-01T03:03:01;97444.81;;;10.53;63.85
70254;BME280;57649;42.968;1.608;2023-04-01T03:05:27;97451.16;;;10.52;63.14
70254;BME280;57649;42.968;1.608;2023-04-01T03:07:53;97450.16;;;10.53;63.45
70254;BME280;57649;42.968;1.608;2023-04-01T03:10:18;97448.63;;;10.51;63.75
70254;BME280;57649;42.968;1.608;2023-04-01T03:12:44;97448.13;;;10.47;63.74
70254;BME280;57649;42.968;1.608;2023-04-01T03:15:10;97454.00;;;10.43;63.97
70254;BME280;57649;42.968;1.608;2023-04-01T03:17:36;97460.66;;;10.38;64.75
70254;BME280;57649;42.968;1.608;2023-04-01T03:20:01;97455.16;;;10.40;63.70
70254;BME280;57649;42.968;1.608;2023-04-01T03:22:30;97457.97;;;10.38;63.53
70254;BME280;57649;42.968;1.608;2023-04-01T03:24:55;97460.00;;;10.36;63.30
70254;BME280;57649;42.968;1.608;2023-04-01T03:27:21;97448.28;;;10.37;62.95
70254;BME280;57649;42.968;1.608;2023-04-01T03:29:46;97448.63;;;10.34;63.09
70254;BME280;57649;42.968;1.608;2023-04-01T03:32:11;97450.09;;;10.29;63.27
70254;BME280;57649;42.968;1.608;2023-04-01T03:34:37;97434.34;;;10.26;63.24
70254;BME280;57649;42.968;1.608;2023-04-01T03:37:02;97441.19;;;10.20;63.79
70254;BME280;57649;42.968;1.608;2023-04-01T03:39:27;97420.81;;;10.19;64.64
70254;BME280;57649;42.968;1.608;2023-04-01T03:41:53;97431.38;;;10.20;63.64
70254;BME280;57649;42.968;1.608;2023-04-01T03:44:18;97443.38;;;10.16;64.43
70254;BME280;57649;42.968;1.608;2023-04-01T03:46:44;97433.66;;;10.07;64.86
70254;BME280;57649;42.968;1.608;2023-04-01T03:49:10;97441.72;;;10.15;63.75
70254;BME280;57649;42.968;1.608;2023-04-01T03:51:43;97440.69;;;10.08;64.23
70254;BME280;57649;42.968;1.608;2023-04-01T03:54:09;97442.84;;;10.05;64.70
70254;BME280;57649;42.968;1.608;2023-04-01T03:56:35;97441.34;;;10.02;65.30
70254;BME280;57649;42.968;1.608;2023-04-01T03:59:03;97431.50;;;10.02;64.91
70254;BME280;57649;42.968;1.608;2023-04-01T04:01:29;97437.50;;;9.96;64.85
70254;BME280;57649;42.968;1.608;2023-04-01T04:03:55;97436.66;;;9.96;65.42
70254;BME280;57649;42.968;1.608;2023-04-01T04:06:20;97427.59;;;9.89;65.71
70254;BME280;57649;42.968;1.608;2023-04-01T04:08:46;97433.28;;;9.86;65.19
70254;BME280;57649;42.968;1.608;2023-04-01T04:11:11;97439.94;;;9.81;65.40
70254;BME280;57649;42.968;1.608;2023-04-01T04:13:37;97443.94;;;9.77;66.08
70254;BME280;57649;42.968;1.608;2023-04-01T04:16:03;97437.41;;;9.72;66.14
70254;BME280;57649;42.968;1.608;2023-04-01T04:18:28;97450.94;;;9.70;64.66
70254;BME280;57649;42.968;1.608;2023-04-01T04:20:54;97439.94;;;9.73;64.39
70254;BME280;57649;42.968;1.608;2023-04-01T04:23:20;97447.75;;;9.67;65.00
70254;BME280;57649;42.968;1.608;2023-04-01T04:28:21;97457.63;;;9.74;63.65
70254;BME280;57649;42.968;1.608;2023-04-01T04:30:47;97435.41;;;9.74;63.82
70254;BME280;57649;42.968;1.608;2023-04-01T04:33:12;97435.56;;;9.64;63.46
70254;BME280;57649;42.968;1.608;2023-04-01T04:35:38;97443.41;;;9.66;63.47
70254;BME280;57649;42.968;1.608;2023-04-01T04:38:03;97438.38;;;9.62;63.60
70254;BME280;57649;42.968;1.608;2023-04-01T04:40:28;97440.25;;;9.70;62.41
70254;BME280;57649;42.968;1.608;2023-04-01T04:42:54;97435.09;;;9.77;62.28
70254;BME280;57649;42.968;1.608;2023-04-01T04:45:19;97421.88;;;9.75;61.39
70254;BME280;57649;42.968;1.608;2023-04-01T04:47:45;97425.44;;;9.84;62.02
70254;BME280;57649;42.968;1.608;2023-04-01T04:50:10;97425.44;;;9.84;61.96
70254;BME280;57649;42.968;1.608;2023-04-01T04:52:37;97421.41;;;9.80;62.52
70254;BME280;57649;42.968;1.608;2023-04-01T04:55:02;97440.91;;;9.72;63.04
70254;BME280;57649;42.968;1.608;2023-04-01T04:57:28;97430.22;;;9.64;63.62
70254;BME280;57649;42.968;1.608;2023-04-01T04:59:53;97431.72;;;9.67;64.02
70254;BME280;57649;42.968;1.608;2023-04-01T05:02:18;97430.06;;;9.74;63.72
70254;BME280;57649;42.968;1.608;2023-04-01T05:04:44;97430.22;;;9.72;64.09
70254;BME280;57649;42.968;1.608;2023-04-01T05:07:10;97431.03;;;9.64;64.85
70254;BME280;57649;42.968;1.608;2023-04-01T05:09:35;97437.56;;;9.62;64.48
70254;BME280;57649;42.968;1.608;2023-04-01T05:12:01;97439.22;;;9.63;65.47
70254;BME280;57649;42.968;1.608;2023-04-01T05:14:26;97434.22;;;9.60;65.15
70254;BME280;57649;42.968;1.608;2023-04-01T05:16:51;97434.53;;;9.65;65.19
70254;BME280;57649;42.968;1.608;2023-04-01T05:19:17;97432.84;;;9.56;65.51
70254;BME280;57649;42.968;1.608;2023-04-01T05:21:43;97445.41;;;9.63;65.89
70254;BME280;57649;42.968;1.608;2023-04-01T05:24:09;97432.16;;;9.54;66.47
70254;BME280;57649;42.968;1.608;2023-04-01T05:26:35;97433.19;;;9.53;66.85
70254;BME280;57649;42.968;1.608;2023-04-01T05:29:02;97436.47;;;9.47;68.77
70254;BME280;57649;42.968;1.608;2023-04-01T05:31:27;97438.09;;;9.39;68.99
70254;BME280;57649;42.968;1.608;2023-04-01T05:33:53;97439.78;;;9.40;68.93
70254;BME280;57649;42.968;1.608;2023-04-01T05:36:19;97443.72;;;9.28;69.28
70254;BME280;57649;42.968;1.608;2023-04-01T05:38:45;97458.19;;;9.43;69.21
70254;BME280;57649;42.968;1.608;2023-04-01T05:41:14;97446.09;;;9.31;69.09
70254;BME280;57649;42.968;1.608;2023-04-01T05:43:41;97452.16;;;9.41;68.51
70254;BME280;57649;42.968;1.608;2023-04-01T05:46:06;97464.22;;;9.46;68.71
70254;BME280;57649;42.968;1.608;2023-04-01T05:48:33;97458.06;;;9.61;66.99
70254;BME280;57649;42.968;1.608;2023-04-01T05:51:00;97442.97;;;9.78;66.32
70254;BME280;57649;42.968;1.608;2023-04-01T05:53:25;97453.00;;;9.85;65.99
70254;BME280;57649;42.968;1.608;2023-04-01T05:55:51;97438.44;;;9.87;66.20
70254;BME280;57649;42.968;1.608;2023-04-01T05:58:16;97445.34;;;9.98;66.29
70254;BME280;57649;42.968;1.608;2023-04-01T06:00:42;97447.88;;;10.08;66.42
70254;BME280;57649;42.968;1.608;2023-04-01T06:03:07;97435.50;;;10.07;65.91
70254;BME280;57649;42.968;1.608;2023-04-01T06:05:43;97447.72;;;10.17;65.23
70254;BME280;57649;42.968;1.608;2023-04-01T06:08:16;97444.38;;;10.24;65.41
70254;BME280;57649;42.968;1.608;2023-04-01T06:11:06;97442.06;;;10.20;64.37
70254;BME280;57649;42.968;1.608;2023-04-01T06:14:07;97449.75;;;10.24;64.53
70254;BME280;57649;42.968;1.608;2023-04-01T06:27:49;97452.97;;;10.35;62.40
70254;BME280;57649;42.968;1.608;2023-04-01T06:47:10;97462.34;;;10.56;62.13
70254;BME280;57649;42.968;1.608;2023-04-01T06:55:44;97463.53;;;10.62;61.24
70254;BME280;57649;42.968;1.608;2023-04-01T06:58:19;97465.38;;;10.77;60.56
70254;BME280;57649;42.968;1.608;2023-04-01T07:00:48;97444.47;;;10.81;60.24
70254;BME280;57649;42.968;1.608;2023-04-01T07:03:23;97465.22;;;10.95;59.91
70254;BME280;57649;42.968;1.608;2023-04-01T07:05:53;97484.63;;;10.97;59.65
70254;BME280;57649;42.968;1.608;2023-04-01T07:08:24;97462.66;;;11.02;58.82
70254;BME280;57649;42.968;1.608;2023-04-01T07:11:09;97462.69;;;11.10;59.33
70254;BME280;57649;42.968;1.608;2023-04-01T07:13:50;97450.28;;;10.93;59.61
70254;BME280;57649;42.968;1.608;2023-04-01T07:19:03;97472.88;;;11.15;60.46
70254;BME280;57649;42.968;1.608;2023-04-01T07:21:50;97465.03;;;11.05;61.75
70254;BME280;57649;42.968;1.608;2023-04-01T07:24:25;97461.00;;;11.09;61.89
70254;BME280;57649;42.968;1.608;2023-04-01T07:26:56;97456.47;;;11.10;62.13
70254;BME280;57649;42.968;1.608;2023-04-01T07:29:23;97473.56;;;10.92;61.79
70254;BME280;57649;42.968;1.608;2023-04-01T07:32:20;97454.66;;;10.94;61.78
70254;BME280;57649;42.968;1.608;2023-04-01T07:40:20;97466.47;;;11.24;61.99
70254;BME280;57649;42.968;1.608;2023-04-01T07:49:03;97453.09;;;11.32;61.84
70254;BME280;57649;42.968;1.608;2023-04-01T07:59:21;97471.00;;;11.32;59.19
70254;BME280;57649;42.968;1.608;2023-04-01T08:02:15;97448.50;;;11.49;58.06
70254;BME280;57649;42.968;1.608;2023-04-01T08:07:36;97443.13;;;11.49;57.31
70254;BME280;57649;42.968;1.608;2023-04-01T08:10:28;97416.81;;;11.53;55.60
70254;BME280;57649;42.968;1.608;2023-04-01T08:21:05;97419.25;;;11.71;54.46
70254;BME280;57649;42.968;1.608;2023-04-01T08:23:36;97418.50;;;11.93;53.42
70254;BME280;57649;42.968;1.608;2023-04-01T08:26:08;97412.09;;;12.26;52.98
70254;BME280;57649;42.968;1.608;2023-04-01T08:28:56;97406.47;;;12.59;51.44
70254;BME280;57649;42.968;1.608;2023-04-01T08:31:43;97413.38;;;12.76;51.37
70254;BME280;57649;42.968;1.608;2023-04-01T08:34:20;97410.00;;;13.12;50.58
70254;BME280;57649;42.968;1.608;2023-04-01T08:37:03;97414.41;;;13.43;50.07
70254;BME280;57649;42.968;1.608;2023-04-01T08:39:45;97410.91;;;13.79;47.92
70254;BME280;57649;42.968;1.608;2023-04-01T08:45:15;97391.28;;;14.58;46.95
70254;BME280;57649;42.968;1.608;2023-04-01T08:48:23;97381.56;;;13.99;47.09
70254;BME280;57649;42.968;1.608;2023-04-01T08:56:23;97363.97;;;14.61;46.53
70254;BME280;57649;42.968;1.608;2023-04-01T09:07:53;97365.22;;;16.18;42.81
70254;BME280;57649;42.968;1.608;2023-04-01T09:13:09;97339.91;;;16.52;41.61
70254;BME280;57649;42.968;1.608;2023-04-01T09:24:09;97336.97;;;16.41;41.35
70254;BME280;57649;42.968;1.608;2023-04-01T09:30:02;97338.44;;;16.36;39.83
70254;BME280;57649;42.968;1.608;2023-04-01T09:35:39;97333.44;;;16.20;40.04
70254;BME280;57649;42.968;1.608;2023-04-01T09:40:58;97341.75;;;17.19;38.79
70254;BME280;57649;42.968;1.608;2023-04-01T09:44:21;97338.84;;;16.73;39.62
70254;BME280;57649;42.968;1.608;2023-04-01T09:51:55;97339.31;;;15.27;42.11
70254;BME280;57649;42.968;1.608;2023-04-01T10:09:05;97328.38;;;14.72;44.22
70254;BME280;57649;42.968;1.608;2023-04-01T11:06:17;97261.09;;;13.79;52.58
70254;BME280;57649;42.968;1.608;2023-04-01T11:09:26;97263.72;;;13.73;52.00
70254;BME280;57649;42.968;1.608;2023-04-01T11:20:56;97241.75;;;14.12;52.75
70254;BME280;57649;42.968;1.608;2023-04-01T11:31:46;97218.56;;;14.46;50.82
70254;BME280;57649;42.968;1.608;2023-04-01T11:36:57;97215.78;;;14.61;48.98
70254;BME280;57649;42.968;1.608;2023-04-01T11:39:40;97213.38;;;14.44;48.64
70254;BME280;57649;42.968;1.608;2023-04-01T11:44:53;97219.88;;;14.57;48.25
70254;BME280;57649;42.968;1.608;2023-04-01T11:55:46;97228.13;;;14.83;46.89
70254;BME280;57649;42.968;1.608;2023-04-01T11:58:25;97240.72;;;15.11;46.91
70254;BME280;57649;42.968;1.608;2023-04-01T12:01:24;97238.91;;;15.18;45.68
70254;BME280;57649;42.968;1.608;2023-04-01T12:09:46;97273.50;;;13.59;49.75
70254;BME280;57649;42.968;1.608;2023-04-01T12:15:27;97284.13;;;13.45;50.61
70254;BME280;57649;42.968;1.608;2023-04-01T12:20:45;97269.56;;;13.40;50.50
70254;BME280;57649;42.968;1.608;2023-04-01T12:23:31;97279.88;;;13.36;51.20
70254;BME280;57649;42.968;1.608;2023-04-01T12:37:29;97267.06;;;13.75;51.73
70254;BME280;57649;42.968;1.608;2023-04-01T12:40:23;97256.03;;;13.91;51.85
70254;BME280;57649;42.968;1.608;2023-04-01T12:57:52;97267.84;;;12.73;60.55
70254;BME280;57649;42.968;1.608;2023-04-01T13:08:52;97293.91;;;11.42;70.22
70254;BME280;57649;42.968;1.608;2023-04-01T13:24:52;97280.78;;;10.68;70.40
70254;BME280;57649;42.968;1.608;2023-04-01T13:35:50;97277.56;;;11.60;65.04
70254;BME280;57649;42.968;1.608;2023-04-01T13:38:46;97259.75;;;11.90;63.49
70254;BME280;57649;42.968;1.608;2023-04-01T13:44:37;97280.84;;;11.93;62.64
70254;BME280;57649;42.968;1.608;2023-04-01T13:47:26;97273.75;;;12.00;63.15
70254;BME280;57649;42.968;1.608;2023-04-01T13:55:39;97240.41;;;11.71;64.50
70254;BME280;57649;42.968;1.608;2023-04-01T13:58:22;97246.66;;;11.41;62.10
70254;BME280;57649;42.968;1.608;2023-04-01T14:01:12;97242.25;;;11.48;61.74
70254;BME280;57649;42.968;1.608;2023-04-01T14:03:54;97229.28;;;11.36;61.93
70254;BME280;57649;42.968;1.608;2023-04-01T14:14:46;97219.97;;;11.24;59.98
70254;BME280;57649;42.968;1.608;2023-04-01T14:22:48;97211.97;;;11.16;57.56
70254;BME280;57649;42.968;1.608;2023-04-01T14:33:50;97196.75;;;11.40;56.89
70254;BME280;57649;42.968;1.608;2023-04-01T14:36:35;97195.44;;;11.59;56.50
70254;BME280;57649;42.968;1.608;2023-04-01T14:39:33;97188.53;;;11.18;57.27
70254;BME280;57649;42.968;1.608;2023-04-01T14:48:15;97184.28;;;11.24;58.88
70254;BME280;57649;42.968;1.608;2023-04-01T14:50:52;97185.97;;;11.25;59.20
70254;BME280;57649;42.968;1.608;2023-04-01T14:53:30;97179.16;;;11.37;58.35
70254;BME280;57649;42.968;1.608;2023-04-01T14:55:58;97194.13;;;11.31;59.64
70254;BME280;57649;42.968;1.608;2023-04-01T14:58:41;97189.38;;;11.42;59.48
70254;BME280;57649;42.968;1.608;2023-04-01T15:38:52;97200.41;;;11.47;61.85
70254;BME280;57649;42.968;1.608;2023-04-01T15:43:49;97204.44;;;11.20;64.90
70254;BME280;57649;42.968;1.608;2023-04-01T15:51:56;97212.97;;;10.36;69.77
70254;BME280;57649;42.968;1.608;2023-04-01T16:07:30;97313.03;;;8.58;87.18
70254;BME280;57649;42.968;1.608;2023-04-01T16:13:48;97351.88;;;7.17;96.52
70254;BME280;57649;42.968;1.608;2023-04-01T16:22:17;97377.25;;;6.73;100.00
70254;BME280;57649;42.968;1.608;2023-04-01T16:28:23;97397.41;;;6.76;100.00
70254;BME280;57649;42.968;1.608;2023-04-01T16:31:03;97371.06;;;6.83;100.00
70254;BME280;57649;42.968;1.608;2023-04-01T16:33:55;97387.28;;;6.89;100.00
70254;BME280;57649;42.968;1.608;2023-04-01T16:36:30;97382.84;;;6.80;100.00
70254;BME280;57649;42.968;1.608;2023-04-01T16:40:11;97413.78;;;6.81;99.93
70254;BME280;57649;42.968;1.608;2023-04-01T16:42:22;97410.41;;;6.89;100.00
70254;BME280;57649;42.968;1.608;2023-04-01T16:44:59;97414.41;;;7.12;100.00
70254;BME280;57649;42.968;1.608;2023-04-01T16:47:36;97413.25;;;7.15;100.00
70254;BME280;57649;42.968;1.608;2023-04-01T16:50:24;97426.19;;;7.00;99.73
70254;BME280;57649;42.968;1.608;2023-04-01T16:53:16;97424.38;;;7.01;100.00
70254;BME280;57649;42.968;1.608;2023-04-01T17:01:24;97376.56;;;6.71;99.44
70254;BME280;57649;42.968;1.608;2023-04-01T17:04:04;97381.28;;;6.78;98.90
70254;BME280;57649;42.968;1.608;2023-04-01T17:06:50;97393.81;;;6.67;95.95
70254;BME280;57649;42.968;1.608;2023-04-01T17:17:23;97392.25;;;6.65;99.18
70254;BME280;57649;42.968;1.608;2023-04-01T17:22:52;97399.38;;;6.74;90.92
70254;BME280;57649;42.968;1.608;2023-04-01T17:28:44;97395.84;;;7.21;82.84
70254;BME280;57649;42.968;1.608;2023-04-01T17:39:31;97417.16;;;7.21;87.44
70254;BME280;57649;42.968;1.608;2023-04-01T17:42:04;97434.84;;;7.12;87.94
70254;BME280;57649;42.968;1.608;2023-04-01T17:53:40;97407.94;;;7.15;93.57
70254;BME280;57649;42.968;1.608;2023-04-01T17:56:45;97400.34;;;7.20;93.65
70254;BME280;57649;42.968;1.608;2023-04-01T18:04:40;97368.41;;;7.10;87.18
70254;BME280;57649;42.968;1.608;2023-04-01T18:07:27;97352.78;;;6.98;89.71
70254;BME280;57649;42.968;1.608;2023-04-01T18:10:05;97366.63;;;7.11;86.26
70254;BME280;57649;42.968;1.608;2023-04-01T18:15:46;97354.22;;;7.20;86.24
70254;BME280;57649;42.968;1.608;2023-04-01T18:23:52;97337.06;;;7.04;90.08
70254;BME280;57649;42.968;1.608;2023-04-01T18:26:29;97329.56;;;7.18;82.72
70254;BME280;57649;42.968;1.608;2023-04-01T18:29:13;97326.22;;;7.16;84.80
70254;BME280;57649;42.968;1.608;2023-04-01T18:31:48;97323.00;;;7.22;84.24
70254;BME280;57649;42.968;1.608;2023-04-01T18:34:40;97334.41;;;7.32;80.84
70254;BME280;57649;42.968;1.608;2023-04-01T18:37:22;97321.78;;;7.34;78.29
70254;BME280;57649;42.968;1.608;2023-04-01T18:42:57;97330.41;;;7.46;78.73
70254;BME280;57649;42.968;1.608;2023-04-01T18:45:33;97339.84;;;7.40;82.73
70254;BME280;57649;42.968;1.608;2023-04-01T18:50:42;97351.94;;;7.52;82.82
70254;BME280;57649;42.968;1.608;2023-04-01T18:55:50;97347.56;;;7.33;86.54
70254;BME280;57649;42.968;1.608;2023-04-01T19:05:42;97341.31;;;7.25;83.34
70254;BME280;57649;42.968;1.608;2023-04-01T19:08:32;97355.72;;;7.32;81.18
70254;BME280;57649;42.968;1.608;2023-04-01T19:22:26;97382.59;;;7.39;82.46
70254;BME280;57649;42.968;1.608;2023-04-01T19:28:00;97371.19;;;7.46;81.37
70254;BME280;57649;42.968;1.608;2023-04-01T19:38:58;97387.53;;;7.33;85.33
70254;BME280;57649;42.968;1.608;2023-04-01T19:41:47;97393.72;;;7.24;85.39
70254;BME280;57649;42.968;1.608;2023-04-01T19:55:03;97428.72;;;6.45;90.53
70254;BME280;57649;42.968;1.608;2023-04-01T19:58:05;97413.72;;;6.24;92.15
70254;BME280;57649;42.968;1.608;2023-04-01T20:00:41;97434.31;;;6.03;90.52
70254;BME280;57649;42.968;1.608;2023-04-01T20:05:58;97420.66;;;5.76;91.36
70254;BME280;57649;42.968;1.608;2023-04-01T20:17:11;97426.97;;;5.85;88.47
70254;BME280;57649;42.968;1.608;2023-04-01T20:19:42;97430.31;;;5.87;86.97
70254;BME280;57649;42.968;1.608;2023-04-01T20:24:52;97438.28;;;5.77;85.76
70254;BME280;57649;42.968;1.608;2023-04-01T20:27:22;97447.25;;;5.86;85.13
70254;BME280;57649;42.968;1.608;2023-04-01T20:40:26;97453.47;;;6.16;84.38
70254;BME280;57649;42.968;1.608;2023-04-01T20:46:23;97426.44;;;6.21;83.86
70254;BME280;57649;42.968;1.608;2023-04-01T20:49:23;97435.53;;;6.28;82.94
70254;BME280;57649;42.968;1.608;2023-04-01T20:52:01;97420.88;;;6.24;84.48
70254;BME280;57649;42.968;1.608;2023-04-01T20:57:14;97415.41;;;6.45;84.19
70254;BME280;57649;42.968;1.608;2023-04-01T21:02:46;97416.94;;;6.47;82.48
70254;BME280;57649;42.968;1.608;2023-04-01T21:08:14;97397.19;;;6.50;82.48
70254;BME280;57649;42.968;1.608;2023-04-01T21:13:52;97394.66;;;6.58;83.33
70254;BME280;57649;42.968;1.608;2023-04-01T21:29:43;97413.75;;;6.91;82.66
70254;BME280;57649;42.968;1.608;2023-04-01T21:32:41;97420.13;;;6.61;87.27
70254;BME280;57649;42.968;1.608;2023-04-01T21:41:11;97431.78;;;6.30;91.96
70254;BME280;57649;42.968;1.608;2023-04-01T21:46:57;97439.19;;;6.36;91.94
70254;BME280;57649;42.968;1.608;2023-04-01T21:52:51;97429.66;;;6.44;88.35
70254;BME280;57649;42.968;1.608;2023-04-01T22:00:42;97443.81;;;6.54;87.30
70254;BME280;57649;42.968;1.608;2023-04-01T22:10:47;97463.81;;;6.58;90.11
70254;BME280;57649;42.968;1.608;2023-04-01T22:13:27;97475.56;;;6.65;89.99
70254;BME280;57649;42.968;1.608;2023-04-01T22:16:14;97462.16;;;6.47;85.92
70254;BME280;57649;42.968;1.608;2023-04-01T22:18:57;97482.56;;;6.18;88.71
70254;BME280;57649;42.968;1.608;2023-04-01T22:24:24;97473.44;;;6.01;89.92
70254;BME280;57649;42.968;1.608;2023-04-01T22:27:12;97457.00;;;5.76;92.07
70254;BME280;57649;42.968;1.608;2023-04-01T22:30:10;97460.53;;;5.86;92.05
70254;BME280;57649;42.968;1.608;2023-04-01T22:32:43;97466.69;;;5.87;95.07
70254;BME280;57649;42.968;1.608;2023-04-01T22:43:41;97450.38;;;6.01;96.78
70254;BME280;57649;42.968;1.608;2023-04-01T22:52:18;97443.69;;;6.07;100.00
70254;BME280;57649;42.968;1.608;2023-04-01T22:54:54;97439.34;;;6.25;100.00
70254;BME280;57649;42.968;1.608;2023-04-01T23:00:25;97440.44;;;6.23;100.00
70254;BME280;57649;42.968;1.608;2023-04-01T23:03:08;97438.34;;;6.16;99.96
70254;BME280;57649;42.968;1.608;2023-04-01T23:05:42;97444.50;;;6.17;100.00
70254;BME280;57649;42.968;1.608;2023-04-01T23:11:12;97438.91;;;6.40;96.64
70254;BME280;57649;42.968;1.608;2023-04-01T23:14:06;97440.16;;;6.35;97.29
70254;BME280;57649;42.968;1.608;2023-04-01T23:16:47;97432.47;;;6.42;99.72
70254;BME280;57649;42.968;1.608;2023-04-01T23:22:07;97434.72;;;6.47;96.76
70254;BME280;57649;42.968;1.608;2023-04-01T23:24:44;97424.34;;;6.53;95.43
70254;BME280;57649;42.968;1.608;2023-04-01T23:27:23;97434.25;;;6.61;92.89
70254;BME280;57649;42.968;1.608;2023-04-01T23:29:52;97434.81;;;6.74;96.19
70254;BME280;57649;42.968;1.608;2023-04-01T23:32:24;97426.59;;;6.58;97.81
70254;BME280;57649;42.968;1.608;2023-04-01T23:34:57;97424.34;;;6.63;95.89
70254;BME280;57649;42.968;1.608;2023-04-01T23:37:23;97410.44;;;6.69;96.04
70254;BME280;57649;42.968;1.608;2023-04-01T23:39:52;97417.56;;;6.79;93.93
70254;BME280;57649;42.968;1.608;2023-04-01T23:42:21;97406.78;;;6.80;96.16
70254;BME280;57649;42.968;1.608;2023-04-01T23:44:50;97408.94;;;6.57;94.68
70254;BME280;57649;42.968;1.608;2023-04-01T23:47:37;97420.53;;;6.66;91.64
70254;BME280;57649;42.968;1.608;2023-04-01T23:50:09;97436.47;;;6.75;93.41
70254;BME280;57649;42.968;1.608;2023-04-01T23:52:41;97434.94;;;6.73;92.43
70254;BME280;57649;42.968;1.608;2023-04-01T23:57:37;97426.13;;;6.72;94.33
